createdAt,value
2019-03-23T00:01:57.450Z,99.90
2019-03-23T00:04:26.055Z,99.90
2019-03-23T00:06:54.664Z,99.90
2019-03-23T00:09:23.228Z,99.90
2019-03-23T00:11:51.862Z,99.90
2019-03-23T00:14:20.456Z,99.90
2019-03-23T00:16:49.038Z,99.90
2019-03-23T00:19:17.627Z,99.90
2019-03-23T00:21:46.222Z,99.90
2019-03-23T00:24:14.744Z,99.90
2019-03-23T00:26:43.306Z,99.90
2019-03-23T00:29:11.965Z,99.90
2019-03-23T00:31:40.501Z,99.90
2019-03-23T00:34:09.023Z,99.90
2019-03-23T00:36:41.708Z,99.90
2019-03-23T00:39:07.911Z,99.90
2019-03-23T00:41:55.869Z,99.90
2019-03-23T00:44:24.528Z,99.90
2019-03-23T00:46:53.174Z,99.90
2019-03-23T00:49:21.760Z,99.90
2019-03-23T00:51:50.247Z,99.90
2019-03-23T00:54:18.874Z,99.90
2019-03-23T00:56:47.500Z,99.90
2019-03-23T00:59:16.119Z,99.90
2019-03-23T01:01:44.678Z,99.90
2019-03-23T01:04:13.330Z,99.90
2019-03-23T01:06:51.529Z,99.90
2019-03-23T01:09:12.213Z,99.90
2019-03-23T01:11:40.831Z,99.90
2019-03-23T01:14:09.407Z,99.90
2019-03-23T01:16:37.977Z,99.90
2019-03-23T01:19:06.506Z,99.90
2019-03-23T01:21:35.074Z,99.90
2019-03-23T01:24:03.813Z,99.90
2019-03-23T01:26:32.411Z,99.90
2019-03-23T01:29:00.961Z,99.90
2019-03-23T01:31:29.540Z,99.90
2019-03-23T01:34:00.072Z,99.90
2019-03-23T01:36:28.618Z,99.90
2019-03-23T01:38:57.216Z,99.90
2019-03-23T01:41:25.825Z,99.90
2019-03-23T01:43:54.458Z,99.90
2019-03-23T01:46:23.036Z,99.90
2019-03-23T01:48:51.623Z,99.90
2019-03-23T01:51:20.220Z,99.90
2019-03-23T01:53:48.838Z,99.90
2019-03-23T01:56:17.404Z,99.90
2019-03-23T01:58:46.015Z,99.90
2019-03-23T02:01:14.611Z,99.90
2019-03-23T02:03:43.181Z,99.90
2019-03-23T02:06:11.756Z,99.90
2019-03-23T02:08:40.335Z,99.90
2019-03-23T02:11:08.938Z,99.90
2019-03-23T02:13:37.501Z,99.90
2019-03-23T02:16:06.054Z,99.90
2019-03-23T02:18:34.638Z,99.90
2019-03-23T02:21:03.202Z,99.90
2019-03-23T02:23:31.846Z,99.90
2019-03-23T02:26:00.421Z,99.90
2019-03-23T02:28:29.051Z,99.90
2019-03-23T02:30:57.635Z,99.90
2019-03-23T02:33:26.201Z,99.90
2019-03-23T02:35:54.737Z,99.90
2019-03-23T02:38:23.351Z,99.90
2019-03-23T02:40:51.931Z,99.90
2019-03-23T02:43:20.552Z,99.90
2019-03-23T02:45:49.158Z,99.90
2019-03-23T02:48:17.819Z,99.90
2019-03-23T02:50:46.358Z,99.90
2019-03-23T02:53:14.957Z,99.90
2019-03-23T02:55:43.600Z,99.90
2019-03-23T02:58:12.215Z,99.90
2019-03-23T03:00:40.767Z,99.90
2019-03-23T03:03:09.308Z,99.90
2019-03-23T03:05:37.892Z,99.90
2019-03-23T03:08:06.503Z,99.90
2019-03-23T03:10:41.942Z,99.90
2019-03-23T03:13:10.619Z,99.90
2019-03-23T03:15:39.568Z,99.90
2019-03-23T03:18:08.399Z,99.90
2019-03-23T03:20:37.093Z,99.90
2019-03-23T03:23:05.698Z,99.90
2019-03-23T03:25:34.242Z,99.90
2019-03-23T03:28:02.897Z,99.90
2019-03-23T03:30:31.530Z,99.90
2019-03-23T03:33:00.110Z,99.90
2019-03-23T03:35:28.651Z,99.90
2019-03-23T03:37:57.539Z,99.90
2019-03-23T03:40:26.170Z,99.90
2019-03-23T03:42:54.775Z,99.90
2019-03-23T03:45:27.809Z,99.90
2019-03-23T03:47:56.611Z,99.90
2019-03-23T03:50:25.254Z,99.90
2019-03-23T03:52:53.891Z,99.90
2019-03-23T03:55:22.433Z,99.90
2019-03-23T03:57:51.007Z,99.90
2019-03-23T04:00:19.556Z,99.90
2019-03-23T04:02:48.189Z,99.90
2019-03-23T04:05:16.787Z,99.90
2019-03-23T04:07:45.730Z,99.90
2019-03-23T04:10:14.433Z,99.90
2019-03-23T04:12:43.096Z,99.90
2019-03-23T04:15:12.014Z,99.90
2019-03-23T04:17:40.538Z,99.90
2019-03-23T04:20:10.697Z,99.90
2019-03-23T04:22:39.306Z,99.90
2019-03-23T04:25:08.870Z,99.90
2019-03-23T04:27:37.528Z,99.90
2019-03-23T04:30:07.826Z,99.90
2019-03-23T04:32:36.449Z,99.90
2019-03-23T04:35:06.163Z,99.90
2019-03-23T04:37:34.776Z,99.90
2019-03-23T04:40:03.604Z,99.90
2019-03-23T04:42:32.218Z,99.90
2019-03-23T04:45:00.799Z,99.90
2019-03-23T04:47:29.415Z,99.90
2019-03-23T04:49:57.998Z,99.90
2019-03-23T04:52:26.554Z,99.90
2019-03-23T04:54:55.109Z,99.90
2019-03-23T04:57:23.608Z,99.90
2019-03-23T04:59:52.240Z,99.90
2019-03-23T05:02:20.900Z,99.90
2019-03-23T05:04:49.435Z,99.90
2019-03-23T05:07:18.043Z,99.90
2019-03-23T05:09:46.623Z,99.90
2019-03-23T05:12:15.186Z,99.90
2019-03-23T05:14:43.822Z,99.90
2019-03-23T05:17:12.550Z,99.90
2019-03-23T05:19:41.253Z,99.90
2019-03-23T05:22:09.808Z,99.90
2019-03-23T05:24:38.460Z,99.90
2019-03-23T05:27:07.040Z,99.90
2019-03-23T05:29:35.551Z,99.90
2019-03-23T05:32:04.248Z,99.90
2019-03-23T05:34:32.834Z,99.90
2019-03-23T05:37:01.479Z,99.90
2019-03-23T05:39:30.146Z,99.90
2019-03-23T05:41:58.868Z,99.90
2019-03-23T05:44:27.435Z,99.90
2019-03-23T05:46:55.971Z,99.90
2019-03-23T05:49:24.579Z,99.90
2019-03-23T05:51:53.227Z,99.90
2019-03-23T05:54:21.893Z,99.90
2019-03-23T05:56:50.537Z,99.90
2019-03-23T05:59:19.233Z,99.90
2019-03-23T06:01:47.843Z,99.90
2019-03-23T06:04:16.472Z,99.90
2019-03-23T06:06:45.074Z,99.90
2019-03-23T06:09:13.712Z,99.90
2019-03-23T06:11:42.569Z,99.90
2019-03-23T06:14:11.154Z,99.90
2019-03-23T06:16:39.735Z,99.90
2019-03-23T06:19:08.211Z,99.90
2019-03-23T06:21:36.829Z,99.90
2019-03-23T06:24:05.540Z,99.90
2019-03-23T06:26:34.154Z,99.90
2019-03-23T06:29:02.792Z,99.90
2019-03-23T06:31:31.403Z,99.90
2019-03-23T06:33:59.941Z,99.90
2019-03-23T06:36:28.484Z,99.90
2019-03-23T06:39:05.105Z,99.90
2019-03-23T06:41:27.404Z,99.90
2019-03-23T06:43:55.990Z,99.90
2019-03-23T06:46:24.452Z,99.90
2019-03-23T06:48:53.009Z,99.90
2019-03-23T06:51:21.651Z,99.90
2019-03-23T06:53:50.361Z,99.90
2019-03-23T06:56:18.936Z,99.90
2019-03-23T06:58:47.512Z,99.90
2019-03-23T07:01:16.161Z,99.90
2019-03-23T07:03:44.721Z,99.90
2019-03-23T07:06:14.819Z,99.90
2019-03-23T07:08:43.375Z,99.90
2019-03-23T07:11:11.969Z,99.90
2019-03-23T07:13:40.488Z,99.90
2019-03-23T07:16:09.052Z,99.90
2019-03-23T07:18:37.678Z,99.90
2019-03-23T07:21:06.239Z,99.90
2019-03-23T07:23:34.806Z,99.90
2019-03-23T07:26:03.367Z,99.90
2019-03-23T07:28:31.984Z,99.90
2019-03-23T07:31:00.535Z,99.90
2019-03-23T07:33:29.124Z,99.90
2019-03-23T07:35:58.625Z,99.90
2019-03-23T07:38:27.203Z,99.90
2019-03-23T07:41:15.698Z,99.90
2019-03-23T07:43:44.648Z,99.90
2019-03-23T07:46:13.262Z,99.90
2019-03-23T07:48:41.825Z,99.90
2019-03-23T07:51:10.480Z,99.90
2019-03-23T07:53:39.077Z,99.90
2019-03-23T07:56:07.683Z,99.90
2019-03-23T07:58:36.299Z,99.90
2019-03-23T08:01:05.050Z,99.90
2019-03-23T08:03:33.567Z,99.90
2019-03-23T08:06:02.202Z,99.90
2019-03-23T08:08:30.818Z,99.90
2019-03-23T08:10:59.366Z,99.90
2019-03-23T08:13:27.988Z,99.90
2019-03-23T08:15:56.681Z,99.90
2019-03-23T08:18:25.413Z,99.90
2019-03-23T08:20:55.106Z,99.90
2019-03-23T08:23:23.601Z,99.90
2019-03-23T08:25:52.176Z,99.90
2019-03-23T08:28:22.305Z,99.90
2019-03-23T08:30:50.946Z,99.90
2019-03-23T08:33:19.528Z,98.70
2019-03-23T08:35:48.202Z,98.30
2019-03-23T08:38:16.776Z,98.70
2019-03-23T08:40:45.397Z,97.10
2019-03-23T08:43:13.942Z,96.60
2019-03-23T08:45:42.544Z,96.50
2019-03-23T08:48:11.131Z,97.20
2019-03-23T08:50:41.048Z,96.40
2019-03-23T08:53:09.829Z,97.10
2019-03-23T08:55:38.380Z,95.00
2019-03-23T08:58:07.044Z,96.00
2019-03-23T09:00:35.793Z,96.60
2019-03-23T09:03:04.402Z,95.40
2019-03-23T09:05:33.105Z,96.10
2019-03-23T09:08:01.763Z,94.30
2019-03-23T09:10:30.358Z,95.00
2019-03-23T09:12:58.921Z,92.90
2019-03-23T09:15:27.569Z,94.90
2019-03-23T09:17:56.145Z,94.30
2019-03-23T09:20:24.805Z,94.50
2019-03-23T09:22:53.312Z,94.20
2019-03-23T09:25:21.873Z,94.10
2019-03-23T09:27:50.400Z,93.30
2019-03-23T09:30:19.123Z,92.80
2019-03-23T09:32:47.724Z,92.10
2019-03-23T09:35:16.278Z,92.90
2019-03-23T09:37:44.849Z,88.80
2019-03-23T09:40:13.478Z,90.00
2019-03-23T09:42:42.123Z,91.20
2019-03-23T09:45:11.159Z,91.30
2019-03-23T09:47:40.605Z,88.70
2019-03-23T09:50:10.429Z,90.30
2019-03-23T09:52:39.050Z,88.50
2019-03-23T09:55:08.143Z,89.80
2019-03-23T09:57:36.895Z,86.30
2019-03-23T10:00:12.658Z,89.00
2019-03-23T10:02:41.249Z,89.70
2019-03-23T10:05:09.882Z,84.40
2019-03-23T10:07:40.109Z,86.60
2019-03-23T10:10:09.178Z,86.20
2019-03-23T10:12:37.783Z,87.30
2019-03-23T10:15:07.798Z,86.30
2019-03-23T10:17:36.308Z,87.70
2019-03-23T10:20:07.109Z,85.10
2019-03-23T10:22:35.807Z,84.30
2019-03-23T10:25:07.221Z,80.80
2019-03-23T10:27:35.891Z,80.80
2019-03-23T10:30:07.302Z,80.10
2019-03-23T10:32:35.829Z,77.90
2019-03-23T10:35:06.626Z,81.10
2019-03-23T10:37:35.388Z,84.00
2019-03-23T10:40:07.429Z,81.90
2019-03-23T10:42:36.200Z,82.70
2019-03-23T10:45:08.589Z,82.10
2019-03-23T10:47:37.302Z,78.60
2019-03-23T10:50:06.677Z,77.10
2019-03-23T10:52:35.394Z,78.90
2019-03-23T10:55:06.444Z,78.90
2019-03-23T10:57:35.040Z,79.00
2019-03-23T11:00:05.763Z,76.50
2019-03-23T11:02:34.273Z,77.50
2019-03-23T11:05:03.353Z,79.50
2019-03-23T11:07:32.014Z,75.90
2019-03-23T11:10:00.621Z,80.40
2019-03-23T11:12:29.221Z,77.60
2019-03-23T11:14:57.808Z,75.60
2019-03-23T11:17:26.390Z,78.60
2019-03-23T11:19:54.965Z,76.60
2019-03-23T11:22:23.646Z,77.40
2019-03-23T11:24:52.288Z,75.90
2019-03-23T11:27:20.955Z,73.70
2019-03-23T11:29:49.664Z,73.30
2019-03-23T11:32:18.277Z,73.40
2019-03-23T11:34:46.914Z,71.20
2019-03-23T11:37:15.576Z,73.80
2019-03-23T11:39:44.212Z,73.50
2019-03-23T11:42:12.838Z,70.50
2019-03-23T11:44:41.534Z,73.30
2019-03-23T11:47:10.100Z,72.10
2019-03-23T11:49:38.660Z,69.70
2019-03-23T11:52:07.353Z,69.90
2019-03-23T11:54:35.953Z,67.10
2019-03-23T11:57:04.477Z,65.10
2019-03-23T11:59:33.069Z,69.60
2019-03-23T12:02:01.606Z,68.80
2019-03-23T12:04:30.215Z,66.70
2019-03-23T12:06:58.836Z,69.40
2019-03-23T12:09:27.412Z,68.10
2019-03-23T12:12:15.348Z,69.90
2019-03-23T12:14:44.003Z,68.80
2019-03-23T12:17:12.649Z,68.70
2019-03-23T12:19:41.297Z,67.00
2019-03-23T12:22:09.861Z,65.90
2019-03-23T12:24:38.492Z,68.20
2019-03-23T12:27:07.053Z,66.30
2019-03-23T12:29:35.613Z,62.90
2019-03-23T12:32:04.186Z,63.20
2019-03-23T12:34:32.847Z,64.10
2019-03-23T12:37:02.269Z,60.20
2019-03-23T12:39:30.856Z,61.60
2019-03-23T12:41:59.622Z,63.80
2019-03-23T12:44:28.270Z,64.30
2019-03-23T12:46:56.878Z,62.30
2019-03-23T12:49:25.522Z,62.20
2019-03-23T12:51:54.096Z,60.50
2019-03-23T12:54:22.792Z,60.20
2019-03-23T12:56:51.308Z,61.20
2019-03-23T12:59:20.140Z,60.50
2019-03-23T13:01:48.702Z,59.60
2019-03-23T13:04:17.263Z,57.20
2019-03-23T13:06:46.040Z,58.10
2019-03-23T13:09:19.823Z,56.40
2019-03-23T13:11:48.487Z,57.20
2019-03-23T13:14:17.107Z,55.50
2019-03-23T13:16:45.846Z,55.80
2019-03-23T13:19:14.409Z,55.50
2019-03-23T13:21:43.044Z,54.50
2019-03-23T13:24:11.543Z,55.70
2019-03-23T13:26:40.183Z,54.30
2019-03-23T13:29:08.793Z,56.60
2019-03-23T13:31:37.440Z,54.60
2019-03-23T13:34:06.066Z,56.30
2019-03-23T13:36:34.656Z,55.50
2019-03-23T13:39:04.596Z,55.10
2019-03-23T13:41:33.210Z,55.90
2019-03-23T13:44:01.825Z,55.60
2019-03-23T13:46:30.438Z,57.70
2019-03-23T13:48:59.023Z,56.80
2019-03-23T13:51:27.762Z,56.30
2019-03-23T13:53:56.349Z,55.40
2019-03-23T13:56:25.029Z,56.50
2019-03-23T13:58:53.705Z,57.30
2019-03-23T14:01:23.814Z,56.90
2019-03-23T14:03:52.422Z,57.60
2019-03-23T14:06:21.090Z,55.70
2019-03-23T14:08:49.806Z,54.20
2019-03-23T14:11:18.528Z,52.50
2019-03-23T14:13:47.200Z,55.20
2019-03-23T14:16:15.746Z,53.30
2019-03-23T14:18:44.290Z,53.70
2019-03-23T14:21:12.883Z,53.10
2019-03-23T14:23:41.445Z,53.20
2019-03-23T14:26:10.030Z,55.70
2019-03-23T14:28:38.547Z,56.80
2019-03-23T14:31:07.160Z,54.40
2019-03-23T14:33:35.722Z,54.50
2019-03-23T14:36:04.400Z,53.30
2019-03-23T14:38:33.019Z,51.90
2019-03-23T14:41:01.664Z,54.40
2019-03-23T14:43:30.306Z,52.40
2019-03-23T14:45:58.989Z,54.80
2019-03-23T14:48:27.637Z,54.80
2019-03-23T14:50:56.244Z,53.70
2019-03-23T14:53:24.909Z,53.10
2019-03-23T14:55:53.393Z,51.10
2019-03-23T14:58:22.030Z,52.70
2019-03-23T15:00:50.719Z,54.30
2019-03-23T15:03:19.377Z,55.10
2019-03-23T15:05:47.997Z,55.20
2019-03-23T15:08:16.739Z,52.90
2019-03-23T15:10:45.768Z,54.60
2019-03-23T15:13:14.343Z,53.40
2019-03-23T15:15:43.075Z,54.40
2019-03-23T15:18:11.677Z,54.00
2019-03-23T15:20:40.276Z,55.00
2019-03-23T15:23:08.940Z,58.10
2019-03-23T15:25:39.512Z,58.80
2019-03-23T15:28:08.200Z,59.70
2019-03-23T15:30:36.958Z,60.40
2019-03-23T15:33:05.693Z,60.40
2019-03-23T15:35:34.287Z,60.80
2019-03-23T15:38:06.424Z,61.80
2019-03-23T15:40:36.680Z,61.30
2019-03-23T15:43:05.356Z,62.10
2019-03-23T15:45:33.961Z,62.60
2019-03-23T15:48:02.468Z,62.50
2019-03-23T15:50:30.949Z,63.50
2019-03-23T15:53:00.839Z,65.50
2019-03-23T15:55:29.436Z,63.60
2019-03-23T15:57:58.005Z,63.90
2019-03-23T16:00:26.686Z,63.70
2019-03-23T16:02:55.737Z,64.10
2019-03-23T16:05:24.391Z,65.00
2019-03-23T16:07:54.537Z,65.60
2019-03-23T16:10:23.167Z,65.70
2019-03-23T16:12:51.758Z,67.50
2019-03-23T16:15:20.397Z,66.80
2019-03-23T16:17:48.940Z,68.00
2019-03-23T16:20:18.387Z,66.70
2019-03-23T16:22:47.075Z,68.10
2019-03-23T16:25:15.744Z,67.90
2019-03-23T16:27:56.248Z,68.40
2019-03-23T16:30:46.096Z,70.60
2019-03-23T16:33:44.834Z,70.80
2019-03-23T16:36:32.528Z,72.90
2019-03-23T16:39:01.212Z,73.40
2019-03-23T16:41:29.772Z,74.60
2019-03-23T16:43:58.386Z,74.50
2019-03-23T16:46:26.968Z,74.70
2019-03-23T16:48:55.624Z,75.60
2019-03-23T16:51:24.208Z,75.50
2019-03-23T16:53:55.113Z,76.10
2019-03-23T16:56:23.762Z,76.70
2019-03-23T16:58:52.346Z,78.40
2019-03-23T17:01:21.455Z,77.80
2019-03-23T17:03:50.007Z,78.00
2019-03-23T17:06:18.591Z,80.00
2019-03-23T17:08:47.373Z,79.70
2019-03-23T17:11:15.931Z,80.00
2019-03-23T17:13:44.556Z,83.10
2019-03-23T17:16:13.319Z,85.50
2019-03-23T17:18:41.902Z,86.30
2019-03-23T17:21:10.589Z,87.50
2019-03-23T17:23:39.204Z,89.20
2019-03-23T17:26:07.720Z,90.80
2019-03-23T17:28:36.322Z,91.70
2019-03-23T17:31:05.015Z,92.90
2019-03-23T17:33:33.607Z,94.60
2019-03-23T17:36:02.226Z,96.70
2019-03-23T17:38:30.764Z,98.30
2019-03-23T17:40:59.346Z,99.90
2019-03-23T17:43:27.829Z,99.90
2019-03-23T17:45:56.512Z,99.90
2019-03-23T17:48:25.205Z,99.90
2019-03-23T17:50:53.861Z,99.90
2019-03-23T17:53:22.515Z,99.90
2019-03-23T17:55:51.181Z,99.90
2019-03-23T17:58:19.663Z,99.90
2019-03-23T18:00:48.221Z,99.90
2019-03-23T18:03:16.797Z,99.90
2019-03-23T18:05:45.479Z,99.90
2019-03-23T18:08:14.098Z,99.90
2019-03-23T18:10:42.704Z,99.90
2019-03-23T18:13:16.550Z,99.90
2019-03-23T18:15:41.519Z,99.90
2019-03-23T18:18:20.580Z,99.90
2019-03-23T18:20:49.510Z,99.90
2019-03-23T18:23:18.095Z,99.90
2019-03-23T18:25:46.715Z,99.90
2019-03-23T18:28:15.560Z,99.90
2019-03-23T18:30:44.710Z,99.90
2019-03-23T18:33:13.442Z,99.90
2019-03-23T18:35:42.171Z,99.90
2019-03-23T18:38:10.818Z,99.90
2019-03-23T18:40:39.738Z,99.90
2019-03-23T18:43:08.395Z,99.90
2019-03-23T18:45:37.125Z,99.90
2019-03-23T18:48:05.853Z,99.90
2019-03-23T18:50:34.646Z,99.90
2019-03-23T18:53:03.303Z,99.90
2019-03-23T18:55:31.798Z,99.90
2019-03-23T18:58:00.419Z,99.90
2019-03-23T19:00:35.006Z,99.90
2019-03-23T19:03:04.035Z,99.90
2019-03-23T19:05:32.727Z,99.90
2019-03-23T19:08:01.463Z,99.90
2019-03-23T19:10:30.011Z,99.90
2019-03-23T19:12:58.626Z,99.90
2019-03-23T19:15:27.242Z,99.90
2019-03-23T19:17:55.981Z,99.90
2019-03-23T19:20:24.908Z,99.90
2019-03-23T19:22:53.727Z,99.90
2019-03-23T19:25:22.322Z,99.90
2019-03-23T19:27:50.925Z,99.90
2019-03-23T19:30:19.751Z,99.90
2019-03-23T19:32:48.281Z,99.90
2019-03-23T19:35:16.833Z,99.90
2019-03-23T19:37:45.358Z,99.90
2019-03-23T19:40:14.188Z,99.90
2019-03-23T19:42:42.794Z,99.90
2019-03-23T19:45:11.454Z,99.90
2019-03-23T19:47:40.046Z,99.90
2019-03-23T19:50:09.023Z,99.90
2019-03-23T19:52:37.539Z,99.90
2019-03-23T19:55:08.004Z,99.90
2019-03-23T19:57:36.598Z,99.90
2019-03-23T20:00:07.342Z,99.90
2019-03-23T20:02:35.920Z,99.90
2019-03-23T20:05:07.189Z,99.90
2019-03-23T20:07:35.783Z,99.90
2019-03-23T20:10:06.890Z,99.90
2019-03-23T20:12:35.527Z,99.90
2019-03-23T20:15:06.569Z,99.90
2019-03-23T20:17:35.228Z,99.90
2019-03-23T20:20:08.684Z,99.90
2019-03-23T20:22:37.356Z,99.90
2019-03-23T20:25:07.710Z,99.90
2019-03-23T20:27:36.311Z,99.90
2019-03-23T20:30:10.417Z,99.90
2019-03-23T20:32:39.173Z,99.90
2019-03-23T20:35:09.562Z,99.90
2019-03-23T20:37:38.218Z,99.90
2019-03-23T20:40:08.116Z,99.90
2019-03-23T20:42:36.738Z,99.90
2019-03-23T20:45:08.983Z,99.90
2019-03-23T20:47:40.111Z,99.90
2019-03-23T20:50:09.139Z,99.90
2019-03-23T20:52:38.096Z,99.90
2019-03-23T20:55:09.716Z,99.90
2019-03-23T20:57:38.355Z,99.90
2019-03-23T21:00:08.160Z,99.90
2019-03-23T21:02:36.783Z,99.90
2019-03-23T21:05:06.402Z,99.90
2019-03-23T21:07:35.539Z,99.90
2019-03-23T21:10:05.827Z,99.90
2019-03-23T21:12:34.451Z,99.90
2019-03-23T21:15:03.018Z,99.90
2019-03-23T21:17:31.740Z,99.90
2019-03-23T21:20:00.359Z,99.90
2019-03-23T21:22:29.031Z,99.90
2019-03-23T21:24:57.544Z,99.90
2019-03-23T21:27:26.087Z,99.90
2019-03-23T21:29:54.680Z,99.90
2019-03-23T21:32:23.206Z,99.90
2019-03-23T21:34:51.822Z,99.90
2019-03-23T21:37:20.399Z,99.90
2019-03-23T21:39:51.076Z,99.90
2019-03-23T21:42:19.622Z,99.90
2019-03-23T21:44:48.229Z,99.90
2019-03-23T21:47:16.821Z,99.90
2019-03-23T21:49:45.447Z,99.90
2019-03-23T21:52:14.045Z,99.90
2019-03-23T21:54:42.638Z,99.90
2019-03-23T21:57:11.167Z,99.90
2019-03-23T21:59:39.675Z,99.90
2019-03-23T22:02:08.354Z,99.90
2019-03-23T22:04:36.894Z,99.90
2019-03-23T22:07:05.460Z,99.90
2019-03-23T22:09:34.007Z,99.90
2019-03-23T22:12:02.525Z,99.90
2019-03-23T22:14:41.168Z,99.90
2019-03-23T22:17:01.302Z,99.90
2019-03-23T22:19:29.944Z,99.90
2019-03-23T22:21:58.591Z,99.90
2019-03-23T22:24:27.174Z,99.90
2019-03-23T22:26:55.692Z,99.90
2019-03-23T22:29:24.287Z,99.90
2019-03-23T22:31:52.888Z,99.90
2019-03-23T22:34:21.455Z,99.90
2019-03-23T22:36:50.044Z,99.90
2019-03-23T22:39:18.529Z,99.90
2019-03-23T22:41:47.178Z,99.90
2019-03-23T22:44:15.707Z,99.90
2019-03-23T22:46:44.337Z,99.90
2019-03-23T22:49:12.909Z,99.90
2019-03-23T22:51:41.417Z,99.90
2019-03-23T22:54:10.035Z,99.90
2019-03-23T22:56:38.642Z,99.90
2019-03-23T22:59:07.240Z,99.90
2019-03-23T23:01:35.980Z,99.90
2019-03-23T23:04:04.687Z,99.90
2019-03-23T23:06:33.378Z,99.90
2019-03-23T23:09:01.965Z,99.90
2019-03-23T23:11:30.530Z,99.90
2019-03-23T23:13:59.119Z,99.90
2019-03-23T23:16:27.695Z,99.90
2019-03-23T23:18:56.299Z,99.90
2019-03-23T23:21:24.910Z,99.90
2019-03-23T23:23:53.486Z,99.90
2019-03-23T23:26:22.074Z,99.90
2019-03-23T23:28:50.709Z,99.90
2019-03-23T23:31:19.191Z,99.90
2019-03-23T23:33:47.749Z,99.90
2019-03-23T23:36:16.296Z,99.90
2019-03-23T23:38:44.880Z,99.90
2019-03-23T23:41:13.467Z,99.90
2019-03-23T23:43:42.052Z,99.90
2019-03-23T23:46:10.554Z,99.90
2019-03-23T23:48:39.066Z,99.90
2019-03-23T23:51:07.596Z,99.90
2019-03-23T23:53:36.200Z,99.90
2019-03-23T23:56:04.860Z,99.90
2019-03-23T23:58:33.551Z,99.90
